^^
Your Local Weather - Clay, NY Station Historical Data
Daily Summary for January 6, 2018 Units:  Metric    English   Both
« Previous Day
Next Day »
Daily Weekly Monthly Yearly Custom
  High: Low: Average:
Temperature: -14.8 °C -18.1 °C -16.3 °C
Dew Point: -16.7 °C -20.2 °C -18.3 °C
Humidity: 86% 81% 84%
Wind Speed: 8km/h 0km/h 3.7km/h
Wind Gust: 14.5km/h - -
Wind- - NW
Pressure: 1032.7 hPa 1016.5 hPa -
Precipitation: 0 mm    
Historical Graphs
 
 
Tabular Data for January 6, 2018
Time Temperature Dew Point Pressure Wind Wind Speed Wind Gust Humidity Rainfall Rate (Hourly) solar
00:06 -15.1 °C -16.9 °C 1016.5 hPa NW 8 km/h 11.3 km/h 86% 0 mm 0 W/m2
00:16 -15.1 °C -16.9 °C 1016.5 hPa NW 6.4 km/h 8 km/h 86% 0 mm 0 W/m2
00:22 -15.1 °C -16.9 °C 1016.5 hPa NW 6.4 km/h 6.4 km/h 86% 0 mm 0 W/m2
00:28 -15.1 °C -16.9 °C 1016.8 hPa WNW 8 km/h 14.5 km/h 86% 0 mm 0 W/m2
00:40 -15 °C -16.8 °C 1016.5 hPa NW 6.4 km/h 12.9 km/h 86% 0 mm 0 W/m2
00:48 -14.9 °C -16.8 °C 1016.8 hPa WNW 4.8 km/h 12.9 km/h 86% 0 mm 0 W/m2
00:54 -14.9 °C -16.8 °C 1016.8 hPa West 4.8 km/h 11.3 km/h 86% 0 mm 0 W/m2
01:00 -14.9 °C -16.8 °C 1016.8 hPa WNW 6.4 km/h 9.7 km/h 86% 0 mm 0 W/m2
01:06 -14.9 °C -16.7 °C 1016.8 hPa WNW 8 km/h 9.7 km/h 86% 0 mm 0 W/m2
01:14 -15.1 °C -16.9 °C 1017.2 hPa WNW 4.8 km/h 11.3 km/h 86% 0 mm 0 W/m2
01:20 -15.3 °C -17.2 °C 1016.8 hPa West 3.2 km/h 3.2 km/h 85% 0 mm 0 W/m2
01:26 -15.4 °C -17.4 °C 1017.2 hPa WNW 1.6 km/h 3.2 km/h 85% 0 mm 0 W/m2
01:34 -15.6 °C -17.5 °C 1017.2 hPa West 3.2 km/h 3.2 km/h 85% 0 mm 0 W/m2
01:40 -15.6 °C -17.6 °C 1017.5 hPa WNW 3.2 km/h 3.2 km/h 85% 0 mm 0 W/m2
01:48 -15.6 °C -17.6 °C 1017.5 hPa WNW 3.2 km/h 4.8 km/h 85% 0 mm 0 W/m2
01:52 -15.6 °C -17.6 °C 1017.5 hPa West 3.2 km/h 4.8 km/h 85% 0 mm 0 W/m2
02:00 -15.5 °C -17.3 °C 1017.5 hPa WNW 3.2 km/h 3.2 km/h 86% 0 mm 0 W/m2
02:08 -15.4 °C -17.2 °C 1017.8 hPa NNW 4.8 km/h 11.3 km/h 86% 0 mm 0 W/m2
02:14 -15.4 °C -17.2 °C 1017.8 hPa NW 6.4 km/h 14.5 km/h 86% 0 mm 0 W/m2
02:18 -15.5 °C -17.3 °C 1018.2 hPa NNW 8 km/h 14.5 km/h 86% 0 mm 0 W/m2
02:24 -15.6 °C -17.5 °C 1018.2 hPa NW 6.4 km/h 9.7 km/h 85% 0 mm 0 W/m2
02:30 -15.7 °C -17.6 °C 1018.2 hPa NNW 4.8 km/h 4.8 km/h 85% 0 mm 0 W/m2
02:36 -15.8 °C -17.7 °C 1018.2 hPa NNW 4.8 km/h 4.8 km/h 85% 0 mm 0 W/m2
02:42 -15.9 °C -17.9 °C 1018.5 hPa WNW 4.8 km/h 4.8 km/h 85% 0 mm 0 W/m2
02:48 -16.1 °C -18 °C 1018.5 hPa NW 4.8 km/h 11.3 km/h 85% 0 mm 0 W/m2
02:56 -16.3 °C -18.2 °C 1018.5 hPa WNW 6.4 km/h 6.4 km/h 85% 0 mm 0 W/m2
03:02 -16.4 °C -18.4 °C 1018.5 hPa WNW 4.8 km/h 6.4 km/h 85% 0 mm 0 W/m2
03:08 -16.6 °C -18.5 °C 1018.8 hPa NW 4.8 km/h 6.4 km/h 85% 0 mm 0 W/m2
03:16 -16.7 °C -18.6 °C 1018.8 hPa WNW 4.8 km/h 9.7 km/h 85% 0 mm 0 W/m2
03:22 -16.8 °C -18.7 °C 1018.8 hPa NNW 6.4 km/h 6.4 km/h 85% 0 mm 0 W/m2
03:42 -17.1 °C -19.2 °C 1019.2 hPa NNW 4.8 km/h 4.8 km/h 84% 0 mm 0 W/m2
03:56 -17.2 °C -19.2 °C 1019.2 hPa NW 4.8 km/h 6.4 km/h 84% 0 mm 0 W/m2
04:02 -17.2 °C -19.3 °C 1019.2 hPa NNW 4.8 km/h 4.8 km/h 84% 0 mm 0 W/m2
04:08 -17.2 °C -19.3 °C 1019.2 hPa WNW 6.4 km/h 6.4 km/h 84% 0 mm 0 W/m2
04:16 -17.2 °C -19.3 °C 1019.5 hPa NNW 6.4 km/h 8 km/h 84% 0 mm 0 W/m2
04:22 -17.2 °C -19.2 °C 1019.2 hPa NW 6.4 km/h 12.9 km/h 84% 0 mm 0 W/m2
04:28 -17.2 °C -19.2 °C 1019.2 hPa West 6.4 km/h 12.9 km/h 84% 0 mm 0 W/m2
04:34 -17.2 °C -19.2 °C 1019.5 hPa WNW 4.8 km/h 6.4 km/h 84% 0 mm 0 W/m2
04:40 -17.2 °C -19.2 °C 1019.5 hPa WNW 4.8 km/h 4.8 km/h 84% 0 mm 0 W/m2
04:46 -17.2 °C -19.2 °C 1019.5 hPa NW 3.2 km/h 4.8 km/h 84% 0 mm 0 W/m2
04:52 -17.2 °C -19.2 °C 1019.5 hPa NW 4.8 km/h 4.8 km/h 84% 0 mm 0 W/m2
04:58 -17.2 °C -19.2 °C 1019.5 hPa NW 4.8 km/h 9.7 km/h 84% 0 mm 0 W/m2
05:06 -17.2 °C -19.2 °C 1019.9 hPa WNW 3.2 km/h 4.8 km/h 84% 0 mm 0 W/m2
05:14 -17.2 °C -19.3 °C 1020.2 hPa NW 4.8 km/h 4.8 km/h 84% 0 mm 0 W/m2
05:20 -17.3 °C -19.3 °C 1020.2 hPa NW 4.8 km/h 4.8 km/h 84% 0 mm 0 W/m2
05:28 -17.3 °C -19.4 °C 1020.2 hPa WNW 4.8 km/h 8 km/h 84% 0 mm 0 W/m2
05:40 -17.4 °C -19.4 °C 1020.5 hPa NNW 3.2 km/h 3.2 km/h 84% 0 mm 0 W/m2
05:52 -17.6 °C -19.6 °C 1020.9 hPa NNW 4.8 km/h 4.8 km/h 84% 0 mm 0 W/m2
05:58 -17.7 °C -19.7 °C 1020.9 hPa WNW 3.2 km/h 4.8 km/h 84% 0 mm 0 W/m2
06:08 -17.8 °C -19.8 °C 1021.2 hPa WNW 4.8 km/h 6.4 km/h 84% 0 mm 0 W/m2
06:14 -17.8 °C -19.9 °C 1021.2 hPa NW 3.2 km/h 6.4 km/h 84% 0 mm 0 W/m2
06:24 -17.9 °C -19.9 °C 1021.2 hPa NW 1.6 km/h 4.8 km/h 84% 0 mm 0 W/m2
06:34 -18.1 °C -20.1 °C 1021.2 hPa NW 3.2 km/h 4.8 km/h 84% 0 mm 0 W/m2
06:40 -18.1 °C -20.1 °C 1021.2 hPa NNW 3.2 km/h 3.2 km/h 84% 0 mm 0 W/m2
06:46 -18.1 °C -20.2 °C 1021.6 hPa NW 1.6 km/h 3.2 km/h 84% 0 mm 0 W/m2
06:54 -18.1 °C -20.2 °C 1021.6 hPa Calm   1.6 km/h 84% 0 mm 0 W/m2
07:00 -18.1 °C -20.2 °C 1021.6 hPa Calm   1.6 km/h 84% 0 mm 0 W/m2
07:06 -18.1 °C -20.1 °C 1021.9 hPa NW 1.6 km/h 3.2 km/h 84% 0 mm 0 W/m2
07:14 -17.9 °C -19.9 °C 1021.6 hPa WNW 3.2 km/h 4.8 km/h 84% 0 mm 0 W/m2
07:22 -17.7 °C -19.7 °C 1021.6 hPa WNW 3.2 km/h 3.2 km/h 84% 0 mm 0 W/m2
07:30 -17.5 °C -19.6 °C 1021.9 hPa WNW 3.2 km/h 3.2 km/h 84% 0 mm 0 W/m2
07:38 -17.3 °C -19.3 °C 1021.9 hPa WNW 4.8 km/h 4.8 km/h 85% 0 mm 0 W/m2
07:46 -17.2 °C -19.1 °C 1021.9 hPa NW 3.2 km/h 6.4 km/h 85% 0 mm 0 W/m2
07:52 -17.1 °C -19.1 °C 1021.9 hPa NW 3.2 km/h 8 km/h 85% 0 mm 0 W/m2
07:58 -17 °C -18.9 °C 1021.9 hPa WNW 3.2 km/h 8 km/h 85% 0 mm 0 W/m2
08:04 -16.9 °C -18.9 °C 1022.2 hPa WNW 3.2 km/h 3.2 km/h 85% 0 mm 0 W/m2
08:10 -16.9 °C -18.8 °C 1022.2 hPa NW 3.2 km/h 3.2 km/h 85% 0 mm 0 W/m2
08:16 -16.9 °C -18.8 °C 1022.2 hPa WNW 3.2 km/h 4.8 km/h 85% 0 mm 0 W/m2
08:22 -16.9 °C -18.8 °C 1022.2 hPa NW 3.2 km/h 3.2 km/h 85% 0 mm 5 W/m2
08:28 -16.9 °C -18.9 °C 1022.2 hPa NW 3.2 km/h 3.2 km/h 85% 0 mm 5 W/m2
08:34 -16.9 °C -18.9 °C 1022.6 hPa NW 3.2 km/h 6.4 km/h 85% 0 mm 7 W/m2
08:40 -16.9 °C -18.9 °C 1022.6 hPa NNW 3.2 km/h 3.2 km/h 85% 0 mm 7 W/m2
08:46 -16.9 °C -18.8 °C 1022.6 hPa WNW 3.2 km/h 3.2 km/h 85% 0 mm 9 W/m2
08:52 -16.8 °C -18.8 °C 1022.9 hPa WNW 1.6 km/h 1.6 km/h 85% 0 mm 9 W/m2
09:00 -16.6 °C -18.6 °C 1022.9 hPa WNW 1.6 km/h 1.6 km/h 85% 0 mm 12 W/m2
09:10 -16.2 °C -18.2 °C 1022.9 hPa NW 3.2 km/h 3.2 km/h 85% 0 mm 12 W/m2
09:16 -16.1 °C -18.1 °C 1023.2 hPa NNW 1.6 km/h 4.8 km/h 85% 0 mm 12 W/m2
09:22 -16.1 °C -18 °C 1023.2 hPa NNW 1.6 km/h 9.7 km/h 85% 0 mm 12 W/m2
09:28 -16 °C -17.9 °C 1023.6 hPa NW 3.2 km/h 9.7 km/h 85% 0 mm 12 W/m2
09:36 -16.1 °C -18 °C 1023.6 hPa North 3.2 km/h 3.2 km/h 85% 0 mm 14 W/m2
09:44 -16.2 °C -18.2 °C 1023.9 hPa NW 4.8 km/h 6.4 km/h 85% 0 mm 12 W/m2
09:52 -16.4 °C -18.4 °C 1023.9 hPa NW 4.8 km/h 4.8 km/h 85% 0 mm 14 W/m2
09:58 -16.5 °C -18.6 °C 1024.3 hPa NW 4.8 km/h 4.8 km/h 84% 0 mm 14 W/m2
10:06 -16.7 °C -18.7 °C 1024.3 hPa WNW 6.4 km/h 6.4 km/h 84% 0 mm 14 W/m2
10:12 -16.8 °C -18.8 °C 1024.3 hPa North 4.8 km/h 9.7 km/h 84% 0 mm 19 W/m2
10:20 -16.8 °C -18.9 °C 1024.6 hPa NNW 4.8 km/h 6.4 km/h 84% 0 mm 16 W/m2
10:32 -16.8 °C -18.9 °C 1024.6 hPa NW 3.2 km/h 4.8 km/h 84% 0 mm 14 W/m2
10:38 -16.8 °C -18.9 °C 1024.9 hPa NNW 4.8 km/h 4.8 km/h 84% 0 mm 16 W/m2
10:48 -16.9 °C -18.9 °C 1024.9 hPa NW 4.8 km/h 6.4 km/h 84% 0 mm 19 W/m2
10:56 -16.8 °C -18.9 °C 1024.9 hPa WNW 3.2 km/h 8 km/h 84% 0 mm 18 W/m2
11:04 -16.8 °C -18.9 °C 1024.9 hPa NW 4.8 km/h 6.4 km/h 84% 0 mm 18 W/m2
11:10 -16.8 °C -18.8 °C 1024.9 hPa NW 4.8 km/h 4.8 km/h 84% 0 mm 23 W/m2
11:16 -16.7 °C -18.8 °C 1024.9 hPa NW 3.2 km/h 4.8 km/h 84% 0 mm 23 W/m2
11:22 -16.6 °C -18.7 °C 1024.9 hPa NNW 4.8 km/h 4.8 km/h 84% 0 mm 21 W/m2
11:28 -16.6 °C -18.7 °C 1024.9 hPa NNW 4.8 km/h 4.8 km/h 84% 0 mm 23 W/m2
11:34 -16.6 °C -18.7 °C 1024.9 hPa NW 4.8 km/h 8 km/h 84% 0 mm 26 W/m2
11:40 -16.6 °C -18.6 °C 1024.9 hPa NW 4.8 km/h 4.8 km/h 84% 0 mm 28 W/m2
11:46 -16.6 °C -18.6 °C 1024.9 hPa NNW 4.8 km/h 4.8 km/h 84% 0 mm 32 W/m2
11:54 -16.6 °C -18.8 °C 1024.9 hPa WNW 4.8 km/h 6.4 km/h 83% 0 mm 30 W/m2
12:06 -16.6 °C -18.8 °C 1024.9 hPa NW 6.4 km/h 9.7 km/h 83% 0 mm 33 W/m2
12:12 -16.4 °C -18.7 °C 1024.9 hPa NNW 6.4 km/h 14.5 km/h 83% 0 mm 35 W/m2
12:24 -16.1 °C -18.3 °C 1024.9 hPa NNW 4.8 km/h 4.8 km/h 83% 0 mm 35 W/m2
12:30 -16 °C -18.4 °C 1024.9 hPa NW 4.8 km/h 4.8 km/h 82% 0 mm 26 W/m2
12:36 -16 °C -18.4 °C 1024.9 hPa WNW 4.8 km/h 4.8 km/h 82% 0 mm 21 W/m2
12:48 -15.7 °C -18.2 °C 1025.3 hPa WNW 4.8 km/h 9.7 km/h 81% 0 mm 30 W/m2
12:54 -15.7 °C -18.1 °C 1025.3 hPa NW 4.8 km/h 11.3 km/h 82% 0 mm 26 W/m2
13:00 -15.9 °C -18.3 °C 1025.3 hPa NW 4.8 km/h 4.8 km/h 82% 0 mm 21 W/m2
13:10 -16.1 °C -18.5 °C 1025.3 hPa NNW 4.8 km/h 4.8 km/h 82% 0 mm 28 W/m2
13:20 -15.9 °C -18.3 °C 1025.6 hPa NNW 4.8 km/h 4.8 km/h 82% 0 mm 26 W/m2
13:26 -15.9 °C -18.2 °C 1025.6 hPa NW 4.8 km/h 4.8 km/h 83% 0 mm 18 W/m2
13:32 -15.9 °C -18.2 °C 1025.6 hPa NW 3.2 km/h 4.8 km/h 83% 0 mm 19 W/m2
13:40 -16 °C -18.2 °C 1025.6 hPa NW 3.2 km/h 3.2 km/h 83% 0 mm 18 W/m2
13:46 -15.9 °C -18.1 °C 1025.6 hPa NNW 4.8 km/h 4.8 km/h 83% 0 mm 23 W/m2
13:52 -15.5 °C -17.7 °C 1025.6 hPa NNW 4.8 km/h 4.8 km/h 83% 0 mm 47 W/m2
13:58 -15.2 °C -17.4 °C 1025.6 hPa NNW 4.8 km/h 6.4 km/h 83% 0 mm 23 W/m2
14:04 -15.3 °C -17.6 °C 1025.6 hPa NW 4.8 km/h 6.4 km/h 83% 0 mm 23 W/m2
14:10 -15.3 °C -17.6 °C 1026 hPa NNW 3.2 km/h 3.2 km/h 83% 0 mm 21 W/m2
14:16 -15.2 °C -17.4 °C 1026 hPa NW 3.2 km/h 4.8 km/h 83% 0 mm 21 W/m2
14:22 -15 °C -17.2 °C 1026 hPa NW 3.2 km/h 3.2 km/h 83% 0 mm 19 W/m2
14:30 -15 °C -17.2 °C 1026 hPa WNW 4.8 km/h 4.8 km/h 83% 0 mm 19 W/m2
14:36 -15.1 °C -17.3 °C 1026 hPa NW 6.4 km/h 6.4 km/h 83% 0 mm 23 W/m2
14:44 -14.8 °C -17.2 °C 1026.3 hPa WNW 4.8 km/h 4.8 km/h 82% 0 mm 19 W/m2
14:50 -14.8 °C -17 °C 1026.3 hPa NW 4.8 km/h 6.4 km/h 83% 0 mm 18 W/m2
14:56 -14.8 °C -17 °C 1026.6 hPa NW 4.8 km/h 11.3 km/h 83% 0 mm 12 W/m2
15:02 -14.8 °C -17.1 °C 1026.6 hPa NW 4.8 km/h 9.7 km/h 83% 0 mm 9 W/m2
15:08 -14.9 °C -17.2 °C 1026.6 hPa WNW 6.4 km/h 9.7 km/h 83% 0 mm 7 W/m2
15:14 -15.1 °C -17.3 °C 1027 hPa NW 4.8 km/h 8 km/h 83% 0 mm 7 W/m2
15:20 -15.2 °C -17.4 °C 1027 hPa WNW 4.8 km/h 4.8 km/h 83% 0 mm 5 W/m2
15:26 -15.2 °C -17.3 °C 1027 hPa NW 4.8 km/h 8 km/h 84% 0 mm 5 W/m2
15:32 -15.2 °C -17.3 °C 1027 hPa WNW 3.2 km/h 4.8 km/h 84% 0 mm 5 W/m2
15:38 -15.2 °C -17.3 °C 1027 hPa NW 3.2 km/h 6.4 km/h 84% 0 mm 5 W/m2
15:44 -15.2 °C -17.3 °C 1027.3 hPa NNW 3.2 km/h 3.2 km/h 84% 0 mm 0 W/m2
15:52 -15.3 °C -17.4 °C 1027.3 hPa WNW 3.2 km/h 6.4 km/h 84% 0 mm 0 W/m2
16:00 -15.2 °C -17.3 °C 1027.7 hPa WNW 3.2 km/h 6.4 km/h 84% 0 mm 0 W/m2
16:06 -15.2 °C -17.3 °C 1027.7 hPa WNW 3.2 km/h 6.4 km/h 84% 0 mm 0 W/m2
16:14 -15.2 °C -17.1 °C 1027.7 hPa WNW 3.2 km/h 6.4 km/h 85% 0 mm 0 W/m2
16:22 -15.2 °C -17.1 °C 1028 hPa WNW 3.2 km/h 4.8 km/h 85% 0 mm 0 W/m2
16:30 -15.2 °C -17.1 °C 1028 hPa WNW 4.8 km/h 4.8 km/h 85% 0 mm 0 W/m2
16:36 -15.2 °C -17.3 °C 1028 hPa NW 3.2 km/h 4.8 km/h 84% 0 mm 0 W/m2
16:42 -15.2 °C -17.1 °C 1028 hPa NW 3.2 km/h 3.2 km/h 85% 0 mm 0 W/m2
16:50 -15.2 °C -17.2 °C 1028 hPa NW 3.2 km/h 9.7 km/h 85% 0 mm 0 W/m2
16:56 -15.3 °C -17.3 °C 1028.3 hPa NNW 3.2 km/h 6.4 km/h 85% 0 mm 0 W/m2
17:02 -15.4 °C -17.5 °C 1028.7 hPa NW 4.8 km/h 6.4 km/h 84% 0 mm 0 W/m2
17:08 -15.4 °C -17.6 °C 1028.7 hPa NNW 4.8 km/h 6.4 km/h 84% 0 mm 0 W/m2
17:14 -15.5 °C -17.6 °C 1028.7 hPa NW 3.2 km/h 3.2 km/h 84% 0 mm 0 W/m2
17:20 -15.6 °C -17.7 °C 1028.7 hPa NW 1.6 km/h 1.6 km/h 84% 0 mm 0 W/m2
17:26 -15.6 °C -17.5 °C 1028.7 hPa NW 1.6 km/h 1.6 km/h 85% 0 mm 0 W/m2
17:32 -15.6 °C -17.6 °C 1028.7 hPa Calm   4.8 km/h 85% 0 mm 0 W/m2
17:38 -15.7 °C -17.6 °C 1029 hPa NNW 1.6 km/h 4.8 km/h 85% 0 mm 0 W/m2
17:44 -15.7 °C -17.7 °C 1029.3 hPa Calm   4.8 km/h 85% 0 mm 0 W/m2
17:50 -15.8 °C -17.7 °C 1029.3 hPa NW 1.6 km/h 1.6 km/h 85% 0 mm 0 W/m2
17:56 -15.8 °C -17.8 °C 1029.3 hPa NNW 1.6 km/h 3.2 km/h 85% 0 mm 0 W/m2
18:04 -15.9 °C -17.8 °C 1029.3 hPa Calm   1.6 km/h 85% 0 mm 0 W/m2
18:10 -15.9 °C -17.8 °C 1029.3 hPa Calm     85% 0 mm 0 W/m2
18:20 -15.9 °C -17.8 °C 1029.7 hPa NNW 1.6 km/h 3.2 km/h 85% 0 mm 0 W/m2
18:26 -15.9 °C -17.8 °C 1029.7 hPa NW 3.2 km/h 3.2 km/h 85% 0 mm 0 W/m2
18:32 -15.8 °C -17.8 °C 1029.7 hPa NW 3.2 km/h 3.2 km/h 85% 0 mm 0 W/m2
18:38 -15.9 °C -17.8 °C 1029.7 hPa NW 3.2 km/h 3.2 km/h 85% 0 mm 0 W/m2
18:46 -15.9 °C -17.9 °C 1030 hPa NNW 3.2 km/h 6.4 km/h 85% 0 mm 0 W/m2
18:52 -16 °C -17.9 °C 1030 hPa NW 3.2 km/h 4.8 km/h 85% 0 mm 0 W/m2
18:58 -16.1 °C -18 °C 1030 hPa NNW 3.2 km/h 6.4 km/h 85% 0 mm 0 W/m2
19:04 -16.2 °C -18.2 °C 1030.4 hPa NNW 3.2 km/h 6.4 km/h 84% 0 mm 0 W/m2
19:12 -16.2 °C -18.3 °C 1030.4 hPa NW 4.8 km/h 4.8 km/h 84% 0 mm 0 W/m2
19:24 -16.3 °C -18.4 °C 1030.7 hPa NW 4.8 km/h 4.8 km/h 84% 0 mm 0 W/m2
19:30 -16.4 °C -18.4 °C 1030.7 hPa North 3.2 km/h 4.8 km/h 84% 0 mm 0 W/m2
19:36 -16.4 °C -18.5 °C 1030.7 hPa NNW 3.2 km/h 4.8 km/h 84% 0 mm 0 W/m2
19:42 -16.4 °C -18.5 °C 1030.7 hPa NW 4.8 km/h 4.8 km/h 84% 0 mm 0 W/m2
19:48 -16.5 °C -18.6 °C 1030.7 hPa NNW 1.6 km/h 4.8 km/h 84% 0 mm 0 W/m2
19:54 -16.6 °C -18.6 °C 1031 hPa North 1.6 km/h 6.4 km/h 84% 0 mm 0 W/m2
20:04 -16.6 °C -18.7 °C 1031 hPa NNW 3.2 km/h 3.2 km/h 84% 0 mm 0 W/m2
20:12 -16.7 °C -18.7 °C 1031.4 hPa NW 3.2 km/h 3.2 km/h 84% 0 mm 0 W/m2
20:18 -16.7 °C -18.7 °C 1031.4 hPa NNW 3.2 km/h 6.4 km/h 84% 0 mm 0 W/m2
20:24 -16.7 °C -18.7 °C 1031.4 hPa NNW 3.2 km/h 6.4 km/h 84% 0 mm 0 W/m2
20:34 -16.7 °C -18.9 °C 1031.4 hPa NW 3.2 km/h 4.8 km/h 83% 0 mm 0 W/m2
20:42 -16.8 °C -19 °C 1031.7 hPa NW 3.2 km/h 4.8 km/h 83% 0 mm 0 W/m2
20:50 -16.8 °C -19.1 °C 1031.7 hPa NNW 1.6 km/h 3.2 km/h 83% 0 mm 0 W/m2
20:56 -16.8 °C -19.1 °C 1031.7 hPa NW 1.6 km/h 3.2 km/h 83% 0 mm 0 W/m2
21:02 -16.9 °C -18.9 °C 1032.1 hPa NW 1.6 km/h 3.2 km/h 84% 0 mm 0 W/m2
21:08 -16.9 °C -19.1 °C 1032.1 hPa NW 1.6 km/h 4.8 km/h 83% 0 mm 0 W/m2
21:14 -16.9 °C -18.9 °C 1032.1 hPa NW 1.6 km/h 3.2 km/h 84% 0 mm 0 W/m2
21:22 -16.9 °C -18.9 °C 1032.1 hPa NW 1.6 km/h 1.6 km/h 84% 0 mm 0 W/m2
21:30 -16.9 °C -19.1 °C 1032.1 hPa NW 1.6 km/h 1.6 km/h 83% 0 mm 0 W/m2
21:38 -16.9 °C -18.9 °C 1032.1 hPa NW 1.6 km/h 3.2 km/h 84% 0 mm 0 W/m2
21:44 -16.9 °C -18.9 °C 1032.1 hPa NW 1.6 km/h 6.4 km/h 84% 0 mm 0 W/m2
21:50 -16.8 °C -18.9 °C 1032.1 hPa NW 1.6 km/h 1.6 km/h 84% 0 mm 0 W/m2
21:56 -16.8 °C -18.9 °C 1032.4 hPa NW 1.6 km/h 4.8 km/h 84% 0 mm 0 W/m2
22:02 -16.8 °C -18.9 °C 1032.4 hPa NNW 1.6 km/h 4.8 km/h 84% 0 mm 0 W/m2
22:10 -16.8 °C -18.9 °C 1032.4 hPa NNW 1.6 km/h 1.6 km/h 84% 0 mm 0 W/m2
22:16 -16.8 °C -18.9 °C 1032.4 hPa Calm   3.2 km/h 84% 0 mm 0 W/m2
22:24 -16.8 °C -18.9 °C 1032.4 hPa WNW 1.6 km/h 4.8 km/h 84% 0 mm 0 W/m2
22:30 -16.8 °C -18.9 °C 1032.4 hPa NNW 1.6 km/h 1.6 km/h 84% 0 mm 0 W/m2
22:36 -16.8 °C -18.9 °C 1032.4 hPa NNW 1.6 km/h 1.6 km/h 84% 0 mm 0 W/m2
22:42 -16.8 °C -18.9 °C 1032.4 hPa Calm   1.6 km/h 84% 0 mm 0 W/m2
22:48 -16.8 °C -18.9 °C 1032.4 hPa Calm   1.6 km/h 84% 0 mm 0 W/m2
22:54 -16.8 °C -18.9 °C 1032.4 hPa Calm   3.2 km/h 84% 0 mm 0 W/m2
23:02 -16.8 °C -18.9 °C 1032.4 hPa NNW 1.6 km/h 3.2 km/h 84% 0 mm 0 W/m2
23:08 -16.8 °C -18.9 °C 1032.4 hPa WNW 1.6 km/h 3.2 km/h 84% 0 mm 0 W/m2
23:16 -16.8 °C -18.8 °C 1032.4 hPa WNW 1.6 km/h 1.6 km/h 84% 0 mm 0 W/m2
23:24 -16.8 °C -18.8 °C 1032.4 hPa NW 1.6 km/h 3.2 km/h 84% 0 mm 0 W/m2
23:30 -16.8 °C -18.8 °C 1032.4 hPa WNW 1.6 km/h 3.2 km/h 84% 0 mm 0 W/m2
23:36 -16.7 °C -18.8 °C 1032.4 hPa WNW 3.2 km/h 3.2 km/h 84% 0 mm 0 W/m2
23:46 -16.7 °C -18.8 °C 1032.7 hPa NW 1.6 km/h 1.6 km/h 84% 0 mm 0 W/m2
23:56 -16.7 °C -18.7 °C 1032.7 hPa NW 1.6 km/h 3.2 km/h 84% 0 mm 0 W/m2
Country Meadow, Clay, NY, USA
Compliments of Weather Underground - 2 mb